Time;durP1;ratioP1;P1;durP2;ratioP2;P2;SDS_P1;SDS_P2;PMS_P1;PMS_P2;Temp;Humidity;BMP_temperature;BMP_pressure;BME280_temperature;BME280_humidity;BME280_pressure;Samples;Min_cycle;Max_cycle;Signal;HPM_P1;HPM_P2
2022/04/12 00:00:23;;;;;;;2.50;1.10;;;4.10;99.90;;;;;;5053674;28;20025;-82
2022/04/12 00:02:49;;;;;;;;;;;4.10;99.90;;;;;;5052648;28;20015;-82
2022/04/12 00:05:14;;;;;;;;;;;4.00;99.90;;;;;;5050892;28;19911;-81
2022/04/12 00:07:40;;;;;;;;;;;4.00;99.90;;;;;;5052001;28;24082;-82
2022/04/12 00:10:06;;;;;;;;;;;3.90;99.90;;;;;;5050767;28;19912;-82
2022/04/12 00:12:32;;;;;;;;;;;4.00;99.90;;;;;;5052071;28;20014;-82
2022/04/12 00:14:58;;;;;;;;;;;3.90;99.90;;;;;;5052503;28;19916;-81
2022/04/12 00:20:08;;;;;;;;;;;3.90;99.90;;;;;;5053527;28;19912;-82
2022/04/12 00:22:34;;;;;;;;;;;3.90;99.90;;;;;;5053102;28;19908;-82
2022/04/12 00:25:00;;;;;;;;;;;3.80;99.90;;;;;;5053442;28;20368;-82
2022/04/12 00:27:27;;;;;;;2.40;0.95;;;3.70;99.90;;;;;;5052140;28;19905;-82
2022/04/12 00:29:53;;;;;;;1.60;0.88;;;3.70;99.90;;;;;;5051807;28;20397;-82
2022/04/12 00:32:19;;;;;;;1.50;0.80;;;3.70;99.90;;;;;;5053640;28;20116;-82
2022/04/12 00:34:44;;;;;;;3.15;1.10;;;3.70;99.90;;;;;;5057214;28;20088;-82
2022/04/12 00:37:10;;;;;;;2.75;1.27;;;3.70;99.90;;;;;;5057018;28;20021;-82
2022/04/12 00:39:37;;;;;;;2.83;1.08;;;3.60;99.90;;;;;;5055854;28;20489;-82
2022/04/12 00:42:03;;;;;;;2.90;1.67;;;3.60;99.90;;;;;;5055633;28;20473;-82
2022/04/12 00:44:29;;;;;;;3.72;1.17;;;3.60;99.90;;;;;;5055306;28;20036;-82
2022/04/12 00:46:55;;;;;;;1.70;1.17;;;3.60;99.90;;;;;;5055485;28;20031;-82
2022/04/12 00:49:23;;;;;;;3.20;1.50;;;3.60;99.90;;;;;;5055217;28;20074;-82
2022/04/12 00:51:49;;;;;;;1.83;0.93;;;3.60;99.90;;;;;;5056685;28;20017;-82
2022/04/12 00:54:19;;;;;;;1.63;0.82;;;3.50;99.90;;;;;;5056678;28;20047;-82
2022/04/12 00:56:48;;;;;;;1.73;0.95;;;3.50;99.90;;;;;;5056469;28;20017;-82
2022/04/12 00:59:14;;;;;;;3.25;1.10;;;3.50;99.90;;;;;;5056416;28;20025;-82
2022/04/12 01:01:40;;;;;;;2.70;1.02;;;3.40;99.90;;;;;;5055259;28;20120;-82
2022/04/12 01:04:06;;;;;;;1.88;1.00;;;3.40;99.90;;;;;;5057412;28;20104;-82
2022/04/12 01:06:32;;;;;;;2.40;1.10;;;3.40;99.90;;;;;;5058114;28;20132;-79
2022/04/12 01:08:58;;;;;;;1.95;1.05;;;3.40;99.90;;;;;;5056266;28;20025;-79
2022/04/12 01:11:26;;;;;;;2.65;1.02;;;3.40;99.90;;;;;;5057366;28;20021;-79
2022/04/12 01:13:52;;;;;;;1.45;0.93;;;3.40;99.90;;;;;;5056294;28;20021;-79
2022/04/12 01:16:18;;;;;;;2.25;1.17;;;3.40;99.90;;;;;;5056556;28;20024;-79
2022/04/12 01:18:44;;;;;;;2.05;1.00;;;3.30;99.90;;;;;;5056495;28;20075;-79
2022/04/12 01:21:10;;;;;;;2.50;1.10;;;3.30;99.90;;;;;;5056539;28;20035;-79
2022/04/12 01:23:54;;;;;;;2.42;1.20;;;3.30;99.90;;;;;;5056510;28;20029;-79
2022/04/12 01:26:19;;;;;;;3.85;1.30;;;3.30;99.90;;;;;;5056737;28;20049;-79
2022/04/12 01:28:45;;;;;;;3.92;1.63;;;3.30;99.90;;;;;;5056229;28;20080;-79
2022/04/12 01:31:11;;;;;;;4.43;1.60;;;3.20;99.90;;;;;;5054787;28;20087;-79
2022/04/12 01:33:37;;;;;;;4.30;1.42;;;3.20;99.90;;;;;;5056335;28;20024;-79
2022/04/12 01:36:03;;;;;;;2.78;1.20;;;3.20;99.90;;;;;;5055902;28;20024;-79
2022/04/12 01:38:28;;;;;;;2.55;1.40;;;3.20;99.90;;;;;;5055706;28;20025;-79
2022/04/12 01:40:54;;;;;;;2.85;1.20;;;3.10;99.90;;;;;;5055972;28;20119;-79
2022/04/12 01:43:20;;;;;;;6.13;1.00;;;3.20;99.90;;;;;;5056118;28;20032;-80
2022/04/12 01:45:46;;;;;;;2.25;1.20;;;3.20;99.90;;;;;;5055869;28;20036;-79
2022/04/12 01:48:11;;;;;;;3.55;1.55;;;3.10;99.90;;;;;;5054135;28;20025;-79
2022/04/12 01:50:37;;;;;;;7.35;3.85;;;3.10;99.90;;;;;;5054359;28;20028;-79
2022/04/12 01:53:03;;;;;;;7.03;3.42;;;3.10;99.90;;;;;;5055413;28;20018;-79
2022/04/12 01:55:29;;;;;;;5.30;2.83;;;3.10;99.90;;;;;;5055331;28;20020;-79
2022/04/12 01:57:54;;;;;;;5.65;2.63;;;3.10;99.90;;;;;;5055411;28;20479;-79
2022/04/12 02:00:20;;;;;;;5.45;2.60;;;3.10;99.90;;;;;;5055635;28;20099;-79
2022/04/12 02:02:46;;;;;;;6.05;2.90;;;3.10;99.90;;;;;;5055635;28;20535;-79
2022/04/12 02:05:11;;;;;;;9.10;3.75;;;3.00;99.90;;;;;;5053923;28;20054;-79
2022/04/12 02:07:37;;;;;;;6.60;3.17;;;2.90;99.90;;;;;;5055208;28;20036;-79
2022/04/12 02:10:04;;;;;;;6.35;2.97;;;2.80;99.90;;;;;;5055092;28;20032;-79
2022/04/12 02:12:30;;;;;;;3.55;2.05;;;2.80;99.90;;;;;;5055407;28;20021;-79
2022/04/12 02:14:56;;;;;;;4.43;1.80;;;2.80;99.90;;;;;;5053767;28;20104;-79
2022/04/12 02:17:22;;;;;;;3.72;1.55;;;2.80;99.90;;;;;;5054987;28;20025;-79
2022/04/12 02:19:48;;;;;;;2.95;1.20;;;2.80;99.90;;;;;;5054962;28;20033;-79
2022/04/12 02:22:13;;;;;;;2.22;1.15;;;2.80;99.90;;;;;;5055510;28;20074;-79
2022/04/12 02:24:39;;;;;;;3.45;1.60;;;2.80;99.90;;;;;;5054887;28;20486;-79
2022/04/12 02:27:05;;;;;;;2.47;1.30;;;2.80;99.90;;;;;;5054950;28;20129;-79
2022/04/12 02:29:31;;;;;;;3.10;1.38;;;2.70;99.90;;;;;;5054835;28;20036;-79
2022/04/12 02:31:56;;;;;;;2.67;1.48;;;2.70;99.90;;;;;;5055060;28;20355;-79
2022/04/12 02:34:22;;;;;;;2.63;1.20;;;2.60;99.90;;;;;;5055399;28;20021;-80
2022/04/12 02:36:48;;;;;;;2.00;1.05;;;2.60;99.90;;;;;;5054977;28;20100;-79
2022/04/12 02:39:14;;;;;;;2.33;1.08;;;2.60;99.90;;;;;;5054600;28;20489;-79
2022/04/12 02:41:40;;;;;;;3.78;1.60;;;2.60;99.90;;;;;;5054860;28;20146;-79
2022/04/12 02:44:06;;;;;;;4.80;1.60;;;2.60;99.90;;;;;;5053367;28;20021;-79
2022/04/12 02:46:32;;;;;;;5.68;1.67;;;2.60;99.90;;;;;;5054689;28;20029;-79
2022/04/12 02:48:57;;;;;;;1.77;1.05;;;2.60;99.90;;;;;;5054605;28;20039;-79
2022/04/12 02:51:23;;;;;;;3.40;1.40;;;2.60;99.90;;;;;;5054590;28;20037;-79
2022/04/12 02:53:49;;;;;;;3.67;1.13;;;2.60;99.90;;;;;;5054553;28;20277;-79
2022/04/12 02:56:14;;;;;;;4.15;1.27;;;2.60;99.90;;;;;;5053837;28;20028;-79
2022/04/12 02:58:40;;;;;;;1.90;1.13;;;2.50;99.90;;;;;;5054164;28;20028;-79
2022/04/12 03:01:06;;;;;;;1.83;1.00;;;2.50;99.90;;;;;;5054005;28;20021;-79
2022/04/12 03:03:32;;;;;;;2.72;1.10;;;2.40;99.90;;;;;;5053855;28;20090;-79
2022/04/12 03:05:57;;;;;;;3.25;1.23;;;2.40;99.90;;;;;;5052768;28;20021;-79
2022/04/12 03:08:23;;;;;;;3.80;1.73;;;2.40;99.90;;;;;;5053912;28;21936;-79
2022/04/12 03:10:49;;;;;;;3.85;1.30;;;2.30;99.90;;;;;;5053993;28;20087;-79
2022/04/12 03:13:15;;;;;;;3.08;1.30;;;2.10;99.90;;;;;;5054107;28;20036;-80
2022/04/12 03:15:41;;;;;;;2.25;1.10;;;2.00;99.90;;;;;;5054260;28;20024;-79
2022/04/12 03:18:07;;;;;;;2.25;1.15;;;2.10;99.90;;;;;;5054165;28;20021;-79
2022/04/12 03:20:33;;;;;;;3.00;0.90;;;2.00;99.90;;;;;;5053859;28;20025;-79
2022/04/12 03:22:59;;;;;;;1.98;1.00;;;2.00;99.90;;;;;;5053908;28;20079;-79
2022/04/12 03:25:24;;;;;;;2.15;1.02;;;1.90;99.90;;;;;;5053825;28;20041;-79
2022/04/12 03:27:50;;;;;;;3.35;1.00;;;1.90;99.90;;;;;;5053999;28;20473;-79
2022/04/12 03:30:16;;;;;;;2.75;1.42;;;2.00;99.90;;;;;;5052328;28;20060;-79
2022/04/12 03:32:42;;;;;;;2.67;1.83;;;2.00;99.90;;;;;;5052613;28;20021;-79
2022/04/12 03:35:08;;;;;;;2.53;1.50;;;1.90;99.90;;;;;;5054042;28;20025;-79
2022/04/12 03:37:34;;;;;;;3.35;1.20;;;1.80;99.90;;;;;;5053784;28;20032;-79
2022/04/12 03:40:00;;;;;;;3.63;1.55;;;1.70;99.90;;;;;;5053148;28;20408;-79
2022/04/12 03:42:26;;;;;;;3.08;1.70;;;1.70;99.90;;;;;;5052812;28;20032;-79
2022/04/12 03:44:51;;;;;;;4.10;2.25;;;1.70;99.90;;;;;;5053017;28;20075;-79
2022/04/12 03:47:17;;;;;;;6.03;2.13;;;1.70;99.90;;;;;;5052859;28;20389;-79
2022/04/12 03:49:43;;;;;;;3.97;2.47;;;1.80;99.90;;;;;;5052644;28;20021;-79
2022/04/12 03:52:09;;;;;;;5.32;3.00;;;1.80;99.90;;;;;;5053132;28;20159;-79
2022/04/12 03:54:35;;;;;;;7.45;3.90;;;1.80;99.90;;;;;;5052431;28;20061;-79
2022/04/12 03:57:01;;;;;;;12.68;5.70;;;1.80;99.90;;;;;;5052494;28;20021;-79
2022/04/12 03:59:27;;;;;;;10.25;3.42;;;1.80;99.90;;;;;;5052703;28;20362;-79
2022/04/12 04:01:53;;;;;;;5.50;2.35;;;1.70;99.90;;;;;;5052476;28;20492;-79
2022/04/12 04:04:19;;;;;;;5.18;1.90;;;1.60;99.90;;;;;;5052387;28;20504;-79
2022/04/12 04:06:44;;;;;;;4.25;2.33;;;1.60;99.90;;;;;;5053372;28;20029;-79
2022/04/12 04:09:10;;;;;;;4.70;1.73;;;1.60;99.90;;;;;;5054848;28;20463;-79
2022/04/12 04:11:39;;;;;;;2.58;1.50;;;1.60;99.90;;;;;;5054740;28;20108;-79
2022/04/12 04:14:06;;;;;;;2.22;1.13;;;1.60;99.90;;;;;;5054533;28;20043;-79
2022/04/12 04:16:32;;;;;;;2.80;1.13;;;1.60;99.90;;;;;;5056279;28;20357;-79
2022/04/12 04:18:58;;;;;;;3.88;1.33;;;1.60;99.90;;;;;;5055770;28;20028;-79
2022/04/12 04:21:24;;;;;;;6.70;1.25;;;1.60;99.90;;;;;;5054659;28;20020;-79
2022/04/12 04:23:49;;;;;;;3.97;1.23;;;1.60;99.90;;;;;;5055889;28;20029;-79
2022/04/12 04:26:15;;;;;;;2.22;1.17;;;1.60;99.90;;;;;;5055812;28;20104;-79
2022/04/12 04:28:42;;;;;;;2.53;1.23;;;1.60;99.90;;;;;;5055880;28;20021;-79
2022/04/12 04:31:11;;;;;;;2.42;1.02;;;1.60;99.90;;;;;;5056092;28;20431;-79
2022/04/12 04:33:37;;;;;;;2.08;1.27;;;1.60;99.90;;;;;;5054393;28;20021;-79
2022/04/12 04:36:03;;;;;;;4.15;1.10;;;1.60;99.90;;;;;;5055647;28;20033;-79
2022/04/12 04:38:47;;;;;;;4.43;1.55;;;1.60;99.90;;;;;;5055816;28;20366;-79
2022/04/12 04:41:14;;;;;;;2.60;1.42;;;1.60;99.90;;;;;;5057454;28;20107;-79
2022/04/12 04:43:40;;;;;;;2.65;1.58;;;1.60;99.90;;;;;;5057218;28;20025;-79
2022/04/12 04:46:06;;;;;;;3.15;1.73;;;1.60;99.90;;;;;;5057094;28;20032;-78
2022/04/12 04:48:31;;;;;;;2.97;1.73;;;1.60;99.90;;;;;;5056869;28;20017;-77
2022/04/12 04:50:57;;;;;;;3.50;1.52;;;1.60;99.90;;;;;;5057684;28;20029;-77
2022/04/12 04:53:23;;;;;;;2.60;1.48;;;1.60;99.90;;;;;;5058439;28;20047;-78
2022/04/12 04:55:48;;;;;;;3.78;1.70;;;1.60;99.90;;;;;;5057423;28;20389;-77
2022/04/12 04:58:14;;;;;;;5.55;2.53;;;1.60;99.90;;;;;;5057561;28;20044;-78
2022/04/12 05:00:40;;;;;;;8.60;3.35;;;1.60;99.90;;;;;;5055383;28;20036;-78
2022/04/12 05:03:05;;;;;;;21.67;9.02;;;1.60;99.90;;;;;;5055309;28;20021;-78
2022/04/12 05:05:31;;;;;;;26.38;10.10;;;1.60;99.90;;;;;;5056488;28;20049;-78
2022/04/12 05:07:57;;;;;;;17.45;8.10;;;1.60;99.90;;;;;;5055768;28;20026;-78
2022/04/12 05:10:32;;;;;;;19.10;8.07;;;1.50;99.90;;;;;;5056985;28;20100;-77
2022/04/12 05:12:59;;;;;;;11.35;5.60;;;1.50;99.90;;;;;;5056738;28;20025;-78
2022/04/12 05:15:27;;;;;;;8.95;4.32;;;1.60;99.90;;;;;;5057181;28;20028;-77
2022/04/12 05:17:54;;;;;;;8.38;3.78;;;1.50;99.90;;;;;;5056607;28;20029;-79
2022/04/12 05:20:24;;;;;;;8.00;3.90;;;1.50;99.90;;;;;;5056284;28;20025;-78
2022/04/12 05:22:50;;;;;;;9.73;4.15;;;1.50;99.90;;;;;;5057046;28;20095;-78
2022/04/12 05:25:16;;;;;;;6.53;4.05;;;1.50;99.90;;;;;;5055021;28;20485;-78
2022/04/12 05:27:43;;;;;;;7.90;4.85;;;1.60;99.90;;;;;;5056309;28;20096;-77
2022/04/12 05:30:10;;;;;;;5.18;3.17;;;1.60;99.90;;;;;;5056663;28;20029;-78
2022/04/12 05:32:37;;;;;;;4.45;2.30;;;1.60;99.90;;;;;;5055057;28;20136;-78
2022/04/12 05:35:04;;;;;;;3.85;1.73;;;1.60;99.90;;;;;;5056994;28;20021;-78
2022/04/12 05:37:31;;;;;;;4.32;1.70;;;1.60;99.90;;;;;;5056214;28;20108;-78
2022/04/12 05:39:57;;;;;;;5.03;1.83;;;1.70;99.90;;;;;;5055753;28;20044;-77
2022/04/12 05:42:26;;;;;;;3.85;1.67;;;1.70;99.90;;;;;;5055768;28;20025;-77
2022/04/12 05:44:51;;;;;;;2.65;1.63;;;1.70;99.90;;;;;;5055842;28;20056;-77
2022/04/12 05:47:17;;;;;;;4.63;1.67;;;1.80;99.90;;;;;;5055990;28;20021;-77
2022/04/12 05:49:43;;;;;;;2.42;1.70;;;1.80;99.90;;;;;;5056025;28;20423;-77
2022/04/12 05:52:08;;;;;;;3.00;1.60;;;1.90;99.90;;;;;;5056006;28;20025;-77
2022/04/12 05:54:34;;;;;;;5.40;1.90;;;2.00;99.90;;;;;;5055704;28;20136;-77
2022/04/12 05:57:00;;;;;;;3.40;1.88;;;2.00;99.90;;;;;;5056107;28;20044;-77
2022/04/12 05:59:25;;;;;;;4.13;2.00;;;2.00;99.90;;;;;;5056334;28;20021;-77
2022/04/12 06:01:51;;;;;;;5.75;2.22;;;2.10;99.90;;;;;;5054348;28;20132;-77
2022/04/12 06:04:17;;;;;;;7.88;2.15;;;2.10;99.90;;;;;;5055631;28;20025;-78
2022/04/12 06:06:43;;;;;;;4.97;3.10;;;2.20;99.90;;;;;;5055969;28;20025;-78
2022/04/12 06:09:08;;;;;;;3.97;2.33;;;2.20;99.90;;;;;;5056121;28;20060;-78
2022/04/12 06:11:34;;;;;;;4.35;2.17;;;2.30;99.90;;;;;;5055496;28;20017;-78
2022/04/12 06:14:00;;;;;;;4.78;2.53;;;2.30;99.90;;;;;;5056101;28;20092;-78
2022/04/12 06:16:26;;;;;;;4.70;2.97;;;2.40;99.90;;;;;;5055712;28;20021;-78
2022/04/12 06:18:52;;;;;;;5.25;2.80;;;2.50;99.90;;;;;;5055134;28;20427;-77
2022/04/12 06:21:18;;;;;;;5.72;2.90;;;2.60;99.90;;;;;;5055010;28;20025;-78
2022/04/12 06:23:44;;;;;;;7.90;3.20;;;2.60;99.90;;;;;;5054776;28;20021;-78
2022/04/12 06:26:10;;;;;;;5.93;3.45;;;2.70;99.90;;;;;;5054927;28;20366;-78
2022/04/12 06:28:35;;;;;;;5.78;2.63;;;2.80;99.90;;;;;;5053700;28;20029;-78
2022/04/12 06:31:01;;;;;;;5.90;2.65;;;2.90;99.90;;;;;;5054172;28;20032;-78
2022/04/12 06:33:28;;;;;;;6.35;2.72;;;2.90;99.90;;;;;;5054831;28;20029;-78
2022/04/12 06:35:54;;;;;;;6.25;2.95;;;3.00;99.90;;;;;;5054657;28;20537;-78
2022/04/12 06:38:19;;;;;;;5.70;2.75;;;3.10;99.90;;;;;;5054896;28;20021;-78
2022/04/12 06:40:48;;;;;;;10.00;2.53;;;3.20;99.90;;;;;;5054544;28;20031;-78
2022/04/12 06:43:14;;;;;;;11.65;3.20;;;3.30;99.90;;;;;;5054630;28;20013;-78
2022/04/12 06:45:39;;;;;;;6.50;3.05;;;3.40;99.90;;;;;;5053555;28;20094;-78
2022/04/12 06:48:05;;;;;;;36.70;8.25;;;3.50;99.90;;;;;;5055111;28;20033;-78
2022/04/12 06:50:32;;;;;;;12.90;3.88;;;3.50;99.90;;;;;;5052022;28;20029;-78
2022/04/12 06:52:58;;;;;;;5.75;2.53;;;3.60;99.90;;;;;;5052636;28;20025;-78
2022/04/12 06:55:25;;;;;;;7.50;3.13;;;3.70;99.90;;;;;;5052978;28;20084;-78
2022/04/12 06:57:50;;;;;;;18.13;5.57;;;3.80;99.90;;;;;;5053022;28;20050;-78
2022/04/12 07:00:17;;;;;;;4.75;1.70;;;4.00;99.90;;;;;;5052840;28;20021;-79
2022/04/12 07:02:44;;;;;;;2.20;1.40;;;4.10;99.90;;;;;;5052933;28;20492;-78
2022/04/12 07:05:10;;;;;;;4.82;1.55;;;4.20;99.90;;;;;;5053587;28;20129;-78
2022/04/12 07:07:37;;;;;;;6.38;2.30;;;4.30;99.90;;;;;;5054589;28;20021;-78
2022/04/12 07:10:05;;;;;;;5.57;2.03;;;4.50;99.90;;;;;;5052631;28;20029;-79
2022/04/12 07:12:31;;;;;;;8.82;2.80;;;4.60;99.90;;;;;;5054385;28;20067;-79
2022/04/12 07:14:56;;;;;;;3.97;2.00;;;4.80;99.90;;;;;;5054506;28;20025;-79
2022/04/12 07:17:22;;;;;;;5.72;2.50;;;4.90;99.90;;;;;;5052780;28;20036;-79
2022/04/12 07:19:48;;;;;;;57.08;7.15;;;5.10;99.90;;;;;;5054062;28;20082;-79
2022/04/12 07:22:13;;;;;;;7.95;3.72;;;5.20;99.90;;;;;;5052404;28;20036;-79
2022/04/12 07:24:39;;;;;;;7.50;4.60;;;5.40;99.90;;;;;;5053736;28;20036;-79
2022/04/12 07:27:05;;;;;;;10.50;5.38;;;5.50;99.90;;;;;;5053945;28;20025;-79
2022/04/12 07:29:31;;;;;;;7.10;4.15;;;5.70;99.90;;;;;;5053506;28;20033;-79
2022/04/12 07:31:57;;;;;;;7.10;3.15;;;5.90;99.90;;;;;;5053909;28;20458;-78
2022/04/12 07:34:22;;;;;;;4.55;2.28;;;6.20;99.90;;;;;;5053423;28;20092;-78
2022/04/12 07:36:53;;;;;;;6.25;3.50;;;6.30;99.90;;;;;;5052182;28;20013;-79
2022/04/12 07:39:19;;;;;;;5.72;2.63;;;6.50;99.90;;;;;;5053332;28;20057;-79
2022/04/12 07:41:48;;;;;;;5.07;3.58;;;6.70;99.90;;;;;;5053420;28;20039;-79
2022/04/12 07:44:15;;;;;;;7.32;2.92;;;6.90;99.90;;;;;;5053476;28;20104;-78
2022/04/12 07:46:41;;;;;;;5.18;3.05;;;7.10;99.90;;;;;;5053651;28;20052;-79
2022/04/12 07:49:07;;;;;;;4.65;2.30;;;7.20;99.90;;;;;;5051963;28;20029;-79
2022/04/12 07:51:33;;;;;;;10.02;4.45;;;7.40;99.90;;;;;;5052263;28;20025;-79
2022/04/12 07:54:01;;;;;;;9.88;4.15;;;7.50;99.90;;;;;;5053507;28;20044;-79
2022/04/12 07:56:27;;;;;;;7.43;2.80;;;7.70;99.90;;;;;;5053346;28;20021;-79
2022/04/12 07:58:53;;;;;;;6.65;3.33;;;7.80;99.90;;;;;;5053851;28;20033;-79
2022/04/12 08:01:19;;;;;;;6.50;2.83;;;8.00;99.90;;;;;;5053231;28;20366;-79
2022/04/12 08:03:45;;;;;;;7.00;3.60;;;8.20;99.90;;;;;;5051934;28;20388;-79
2022/04/12 08:06:11;;;;;;;4.40;2.85;;;8.40;99.90;;;;;;5053577;28;20033;-79
2022/04/12 08:08:36;;;;;;;5.85;2.70;;;8.60;99.90;;;;;;5052022;28;20504;-79
2022/04/12 08:11:03;;;;;;;4.70;2.97;;;8.80;99.90;;;;;;5053279;28;20024;-79
2022/04/12 08:13:28;;;;;;;4.30;2.40;;;8.90;99.90;;;;;;5053209;28;20472;-79
2022/04/12 08:15:54;;;;;;;4.85;2.83;;;9.10;97.10;;;;;;5052365;28;20025;-79
2022/04/12 08:18:20;;;;;;;7.75;3.70;;;9.20;96.00;;;;;;5053533;28;20103;-79
2022/04/12 08:20:49;;;;;;;8.20;3.20;;;9.40;95.20;;;;;;5053676;28;20017;-79
2022/04/12 08:23:16;;;;;;;9.80;4.38;;;9.50;94.60;;;;;;5054939;28;20013;-79
2022/04/12 08:25:42;;;;;;;5.38;4.13;;;9.70;94.40;;;;;;5053293;28;20032;-79
2022/04/12 08:28:08;;;;;;;6.72;3.60;;;9.90;95.70;;;;;;5054823;28;20013;-79
2022/04/12 08:30:35;;;;;;;8.38;5.65;;;10.10;94.50;;;;;;5054549;28;20025;-79
2022/04/12 08:33:01;;;;;;;12.70;7.80;;;10.20;95.20;;;;;;5055450;28;20477;-79
2022/04/12 08:35:27;;;;;;;10.98;6.13;;;10.40;94.70;;;;;;5054948;28;20032;-79
2022/04/12 08:37:53;;;;;;;9.52;6.43;;;10.50;94.40;;;;;;5053024;28;20017;-79
2022/04/12 08:40:19;;;;;;;14.23;6.30;;;10.70;94.40;;;;;;5053115;28;20401;-79
2022/04/12 08:42:46;;;;;;;11.82;5.65;;;10.80;95.00;;;;;;5053120;28;20104;-79
2022/04/12 08:45:13;;;;;;;8.60;5.00;;;11.00;95.80;;;;;;5053090;28;20040;-79
2022/04/12 08:47:39;;;;;;;13.52;4.90;;;11.20;95.40;;;;;;5053336;28;20033;-79
2022/04/12 08:50:07;;;;;;;8.88;3.33;;;11.30;94.00;;;;;;5052912;28;20017;-79
2022/04/12 08:52:34;;;;;;;6.28;3.58;;;11.50;93.30;;;;;;5053483;28;20385;-79
2022/04/12 08:55:01;;;;;;;7.25;3.95;;;11.60;92.60;;;;;;5056693;28;20029;-79
2022/04/12 08:57:27;;;;;;;10.45;3.70;;;11.70;92.00;;;;;;5056768;28;20021;-79
2022/04/12 08:59:53;;;;;;;8.40;4.05;;;11.90;91.60;;;;;;5056796;28;20025;-79
2022/04/12 09:02:19;;;;;;;6.00;4.05;;;12.00;91.30;;;;;;5057044;28;20469;-79
2022/04/12 09:04:45;;;;;;;5.35;3.63;;;12.10;90.70;;;;;;5056763;28;20025;-79
2022/04/12 09:07:11;;;;;;;4.93;3.20;;;12.20;90.10;;;;;;5057248;28;20425;-79
2022/04/12 09:09:41;;;;;;;5.43;3.50;;;12.30;88.70;;;;;;5056734;28;20029;-78
2022/04/12 09:12:09;;;;;;;7.53;3.13;;;12.40;87.20;;;;;;5056770;28;20021;-78
2022/04/12 09:14:52;;;;;;;5.35;2.80;;;12.50;85.90;;;;;;5056710;28;20049;-79
2022/04/12 09:17:48;;;;;;;3.90;2.60;;;12.60;84.80;;;;;;5056331;28;20031;-78
2022/04/12 09:20:19;;;;;;;5.65;2.90;;;12.70;83.80;;;;;;5054178;28;20033;-78
2022/04/12 09:22:46;;;;;;;6.53;2.72;;;12.90;82.90;;;;;;5056997;28;20021;-78
2022/04/12 09:25:14;;;;;;;5.72;2.42;;;13.00;81.60;;;;;;5056431;28;20056;-79
2022/04/12 09:27:44;;;;;;;6.75;3.03;;;13.20;83.10;;;;;;5056206;28;20512;-79
2022/04/12 09:30:12;;;;;;;6.18;2.90;;;13.30;82.00;;;;;;5056896;28;20029;-79
2022/04/12 09:32:40;;;;;;;5.15;2.40;;;13.40;77.60;;;;;;5055171;28;20052;-79
2022/04/12 09:35:06;;;;;;;3.80;2.17;;;13.50;77.50;;;;;;5055091;28;20029;-79
2022/04/12 09:37:36;;;;;;;5.88;2.50;;;13.60;74.90;;;;;;5056589;28;20477;-79
2022/04/12 09:40:02;;;;;;;4.20;2.05;;;13.70;71.70;;;;;;5056469;28;20049;-79
2022/04/12 09:42:54;;;;;;;6.75;1.90;;;13.80;68.60;;;;;;5056792;28;20036;-79
2022/04/12 09:45:23;;;;;;;5.72;2.15;;;13.90;67.30;;;;;;5055105;28;20062;-79
2022/04/12 09:47:51;;;;;;;5.35;2.00;;;14.00;65.60;;;;;;5056854;28;20035;-80
2022/04/12 09:50:23;;;;;;;5.10;2.22;;;14.10;63.30;;;;;;5056235;28;20139;-80
2022/04/12 09:52:57;;;;;;;4.18;1.75;;;14.20;64.50;;;;;;5056498;28;20020;-79
2022/04/12 09:55:43;;;;;;;5.28;2.03;;;14.40;62.90;;;;;;5054725;28;20048;-79
2022/04/12 09:58:11;;;;;;;4.55;2.10;;;14.50;63.00;;;;;;5056200;28;20029;-79
2022/04/12 10:00:41;;;;;;;6.78;2.15;;;14.70;62.90;;;;;;5056383;28;20124;-79
2022/04/12 10:03:09;;;;;;;6.15;2.58;;;14.80;63.40;;;;;;5056840;28;20031;-79
2022/04/12 10:05:35;;;;;;;3.78;2.40;;;14.90;60.20;;;;;;5059341;28;20025;-80
2022/04/12 10:08:04;;;;;;;5.25;2.20;;;15.10;60.90;;;;;;5059208;28;20052;-80
2022/04/12 10:10:30;;;;;;;4.05;2.00;;;15.20;60.70;;;;;;5058731;28;20039;-81
2022/04/12 10:12:58;;;;;;;4.20;2.10;;;15.30;56.10;;;;;;5060731;28;20017;-81
2022/04/12 10:15:26;;;;;;;4.50;2.45;;;15.50;59.50;;;;;;5056799;28;20096;-80
2022/04/12 10:17:52;;;;;;;4.88;2.55;;;15.60;58.40;;;;;;5057689;28;20021;-81
2022/04/12 10:20:19;;;;;;;3.88;2.17;;;15.70;61.50;;;;;;5056233;28;20431;-80
2022/04/12 10:22:47;;;;;;;2.53;1.58;;;15.80;59.30;;;;;;5056319;28;20036;-81
2022/04/12 10:25:20;;;;;;;2.83;1.65;;;15.90;56.80;;;;;;5055937;28;20021;-81
2022/04/12 10:27:53;;;;;;;2.78;1.60;;;16.10;56.20;;;;;;5055119;28;20541;-80
2022/04/12 10:30:18;;;;;;;;;;;16.20;56.00;;;;;;5035283;28;20156;-81
2022/04/12 10:33:02;;;;;;;;;;;16.40;56.00;;;;;;5036163;28;20496;-81
2022/04/12 10:35:28;;;;;;;;;;;16.50;57.00;;;;;;5037778;28;20235;-81
2022/04/12 10:37:56;;;;;;;;;;;16.60;53.90;;;;;;5034894;28;19905;-79
2022/04/12 10:40:23;;;;;;;;;;;16.80;55.90;;;;;;5053577;28;19912;-80
2022/04/12 10:42:49;;;;;;;;;;;16.90;56.90;;;;;;5053654;28;20332;-80
2022/04/12 10:45:14;;;;;;;;;;;17.00;58.00;;;;;;5055623;28;19912;-80
2022/04/12 10:47:42;;;;;;;;;;;17.20;55.90;;;;;;5052660;28;19909;-80
2022/04/12 10:50:12;;;;;;;;;;;17.20;56.20;;;;;;5040671;28;19975;-80
2022/04/12 10:52:41;;;;;;;;;;;17.40;54.40;;;;;;5036533;28;19955;-80
2022/04/12 10:55:08;;;;;;;;;;;17.50;54.60;;;;;;5037567;28;20357;-80
2022/04/12 10:57:34;;;;;;;;;;;17.60;53.50;;;;;;5052437;28;19908;-80
2022/04/12 11:00:02;;;;;;;;;;;17.70;53.70;;;;;;5056209;28;19932;-80
2022/04/12 11:02:30;;;;;;;;;;;17.80;54.60;;;;;;5040759;28;20319;-80
2022/04/12 11:04:56;;;;;;;;;;;17.90;54.90;;;;;;5049211;28;19908;-80
2022/04/12 11:07:32;;;;;;;;;;;18.00;53.70;;;;;;5051328;28;20384;-79
2022/04/12 11:10:13;;;;;;;;;;;18.10;50.90;;;;;;5054228;28;19912;-79
2022/04/12 11:12:42;;;;;;;;;;;18.20;50.10;;;;;;5053789;28;20007;-79
2022/04/12 11:15:24;;;;;;;;;;;18.30;48.50;;;;;;5043676;28;19992;-79
2022/04/12 11:18:03;;;;;;;;;;;18.50;47.80;;;;;;5053595;28;19935;-80
2022/04/12 11:20:29;;;;;;;;;;;18.70;48.20;;;;;;5053075;28;20012;-79
2022/04/12 11:22:56;;;;;;;;;;;18.80;49.00;;;;;;5053149;28;20412;-80
2022/04/12 11:25:22;;;;;;;;;;;19.00;48.20;;;;;;5053759;28;19991;-79
2022/04/12 11:27:54;;;;;;;;;;;19.10;47.30;;;;;;5054911;28;19911;-79
2022/04/12 11:30:20;;;;;;;;;;;19.20;47.10;;;;;;5054008;28;19920;-79
2022/04/12 11:32:47;;;;;;;;;;;19.30;44.00;;;;;;5053928;28;19904;-79
2022/04/12 11:35:13;;;;;;;;;;;19.40;47.30;;;;;;5054057;28;19996;-79
2022/04/12 11:37:39;;;;;;;;;;;19.50;46.40;;;;;;5053909;28;19929;-79
2022/04/12 11:40:05;;;;;;;;;;;19.50;45.90;;;;;;5053896;28;19912;-79
2022/04/12 11:42:30;;;;;;;;;;;19.60;45.70;;;;;;5054159;28;19916;-79
2022/04/12 11:44:57;;;;;;;;;;;19.70;46.70;;;;;;5053721;28;20372;-79
2022/04/12 11:47:33;;;;;;;;;;;19.90;48.70;;;;;;5053715;28;19998;-79
2022/04/12 11:49:59;;;;;;;;;;;20.00;47.70;;;;;;5054108;28;19931;-79
2022/04/12 11:52:25;;;;;;;;;;;20.10;42.20;;;;;;5052515;28;20373;-79
2022/04/12 11:54:51;;;;;;;;;;;20.20;46.00;;;;;;5053692;28;19905;-79
2022/04/12 11:57:26;;;;;;;;;;;20.30;44.40;;;;;;5052546;28;19905;-80
2022/04/12 11:59:56;;;;;;;;;;;20.40;45.60;;;;;;5054366;28;19942;-79
2022/04/12 12:02:25;;;;;;;;;;;20.50;46.20;;;;;;5053606;28;19904;-79
2022/04/12 12:04:58;;;;;;;;;;;20.70;46.10;;;;;;5052417;28;19956;-79
2022/04/12 12:07:24;;;;;;;;;;;20.80;46.60;;;;;;5053887;28;19908;-79
2022/04/12 12:09:57;;;;;;;;;;;21.00;45.00;;;;;;5053497;28;19964;-79
2022/04/12 12:12:39;;;;;;;;;;;21.00;48.20;;;;;;5053531;28;20035;-80
2022/04/12 12:15:13;;;;;;;;;;;21.20;46.40;;;;;;5053678;28;20027;-79
2022/04/12 12:17:39;;;;;;;;;;;21.40;45.00;;;;;;5053523;28;20371;-79
2022/04/12 12:20:07;;;;;;;;;;;21.50;44.00;;;;;;5053715;28;19905;-79
2022/04/12 12:22:40;;;;;;;;;;;21.60;44.30;;;;;;5052259;28;20000;-79
2022/04/12 12:25:06;;;;;;;;;;;21.70;42.80;;;;;;5053696;28;19909;-79
2022/04/12 12:27:34;;;;;;;;;;;21.80;43.50;;;;;;5052461;28;19904;-79
2022/04/12 12:30:01;;;;;;;;;;;21.80;42.10;;;;;;5057570;28;20003;-79
2022/04/12 12:32:36;;;;;;;;;;;21.90;41.60;;;;;;5057296;28;19912;-79
2022/04/12 12:35:03;;;;;;;;;;;22.00;41.80;;;;;;5057215;28;19905;-77
2022/04/12 12:37:28;;;;;;;;;;;22.10;40.10;;;;;;5057132;28;19912;-78
2022/04/12 12:39:54;;;;;;;;;;;22.10;42.00;;;;;;5057149;28;19912;-79
2022/04/12 12:42:21;;;;;;;;;;;22.20;42.20;;;;;;5055813;28;19908;-79
2022/04/12 12:44:46;;;;;;;;;;;22.30;43.70;;;;;;5055759;28;20003;-77
2022/04/12 12:47:12;;;;;;;;;;;22.50;43.20;;;;;;5056932;28;20454;-76
2022/04/12 12:49:39;;;;;;;;;;;22.60;40.20;;;;;;5057264;28;19912;-77
2022/04/12 12:52:09;;;;;;;;;;;22.70;37.30;;;;;;5057200;28;19991;-76
2022/04/12 12:54:35;;;;;;;;;;;22.70;36.80;;;;;;5056856;28;19944;-77
2022/04/12 12:57:01;;;;;;;;;;;22.70;37.20;;;;;;5056696;28;20354;-77
2022/04/12 12:59:28;;;;;;;;;;;22.80;40.00;;;;;;5056968;28;19909;-78
2022/04/12 13:01:54;;;;;;;;;;;22.90;33.20;;;;;;5057303;28;20316;-79
2022/04/12 13:04:19;;;;;;;;;;;22.90;33.30;;;;;;5056737;28;19947;-79
2022/04/12 13:06:45;;;;;;;;;;;23.00;33.80;;;;;;5055456;28;20323;-79
2022/04/12 13:09:10;;;;;;;;;;;23.00;35.10;;;;;;5056633;28;19912;-79
2022/04/12 13:11:36;;;;;;;;;;;23.00;35.70;;;;;;5056643;28;20283;-79
2022/04/12 13:14:02;;;;;;;;;;;23.00;34.60;;;;;;5056632;28;19911;-79